sensor_id;sensor_type;location;lat;lon;timestamp;pressure;altitude;pressure_sealevel;temperature;humidity
33151;BME280;19508;42.578;23.416;2022-12-19T00:01:09;95336.47;;;2.11;67.20
33151;BME280;19508;42.578;23.416;2022-12-19T00:03:48;95344.63;;;2.26;66.08
33151;BME280;19508;42.578;23.416;2022-12-19T00:06:14;95354.78;;;2.22;66.30
33151;BME280;19508;42.578;23.416;2022-12-19T00:08:41;95356.75;;;2.37;65.96
33151;BME280;19508;42.578;23.416;2022-12-19T00:11:09;95356.91;;;2.11;66.64
33151;BME280;19508;42.578;23.416;2022-12-19T00:13:34;95362.19;;;2.03;67.38
33151;BME280;19508;42.578;23.416;2022-12-19T00:16:01;95370.34;;;2.01;67.69
33151;BME280;19508;42.578;23.416;2022-12-19T00:18:27;95369.50;;;1.92;68.31
33151;BME280;19508;42.578;23.416;2022-12-19T00:21:03;95368.50;;;2.02;68.29
33151;BME280;19508;42.578;23.416;2022-12-19T00:23:32;95375.44;;;1.86;68.46
33151;BME280;19508;42.578;23.416;2022-12-19T00:28:39;95372.84;;;2.11;67.22
33151;BME280;19508;42.578;23.416;2022-12-19T00:31:05;95384.81;;;2.07;67.44
33151;BME280;19508;42.578;23.416;2022-12-19T00:33:31;95384.25;;;1.87;68.28
33151;BME280;19508;42.578;23.416;2022-12-19T00:35:57;95386.63;;;2.06;67.49
33151;BME280;19508;42.578;23.416;2022-12-19T00:38:23;95368.25;;;1.62;68.78
33151;BME280;19508;42.578;23.416;2022-12-19T00:40:48;95352.81;;;1.66;68.87
33151;BME280;19508;42.578;23.416;2022-12-19T00:43:14;95375.78;;;1.83;68.42
33151;BME280;19508;42.578;23.416;2022-12-19T00:45:39;95384.75;;;1.82;69.11
33151;BME280;19508;42.578;23.416;2022-12-19T00:48:07;95382.97;;;2.07;67.72
33151;BME280;19508;42.578;23.416;2022-12-19T00:50:32;95390.28;;;1.97;67.75
33151;BME280;19508;42.578;23.416;2022-12-19T00:52:57;95380.59;;;1.80;69.43
33151;BME280;19508;42.578;23.416;2022-12-19T00:55:23;95374.63;;;1.86;68.91
33151;BME280;19508;42.578;23.416;2022-12-19T00:57:48;95390.00;;;1.66;69.19
33151;BME280;19508;42.578;23.416;2022-12-19T01:00:15;95374.13;;;1.82;68.91
33151;BME280;19508;42.578;23.416;2022-12-19T01:02:41;95382.28;;;1.89;68.46
33151;BME280;19508;42.578;23.416;2022-12-19T01:05:06;95377.09;;;1.87;69.11
33151;BME280;19508;42.578;23.416;2022-12-19T01:07:32;95380.13;;;2.01;69.60
33151;BME280;19508;42.578;23.416;2022-12-19T01:09:57;95381.16;;;2.08;69.16
33151;BME280;19508;42.578;23.416;2022-12-19T01:12:22;95373.06;;;2.34;67.69
33151;BME280;19508;42.578;23.416;2022-12-19T01:15:07;95382.69;;;2.35;67.73
33151;BME280;19508;42.578;23.416;2022-12-19T01:17:33;95386.78;;;2.13;67.81
33151;BME280;19508;42.578;23.416;2022-12-19T01:20:01;95379.13;;;1.93;69.04
33151;BME280;19508;42.578;23.416;2022-12-19T01:22:27;95394.91;;;1.95;68.92
33151;BME280;19508;42.578;23.416;2022-12-19T01:24:52;95400.25;;;2.11;68.74
33151;BME280;19508;42.578;23.416;2022-12-19T01:27:17;95395.09;;;2.02;68.14
33151;BME280;19508;42.578;23.416;2022-12-19T01:29:43;95387.81;;;2.20;67.79
33151;BME280;19508;42.578;23.416;2022-12-19T01:32:08;95391.31;;;2.37;67.36
33151;BME280;19508;42.578;23.416;2022-12-19T01:34:33;95388.19;;;2.41;67.33
33151;BME280;19508;42.578;23.416;2022-12-19T01:36:59;95388.44;;;1.97;68.83
33151;BME280;19508;42.578;23.416;2022-12-19T01:39:24;95387.28;;;2.00;68.92
33151;BME280;19508;42.578;23.416;2022-12-19T01:41:50;95398.41;;;2.12;68.66
33151;BME280;19508;42.578;23.416;2022-12-19T01:44:15;95390.03;;;1.74;69.96
33151;BME280;19508;42.578;23.416;2022-12-19T01:46:46;95389.00;;;1.67;71.01
33151;BME280;19508;42.578;23.416;2022-12-19T01:49:14;95393.03;;;1.71;70.88
33151;BME280;19508;42.578;23.416;2022-12-19T01:51:43;95391.75;;;1.91;70.17
33151;BME280;19508;42.578;23.416;2022-12-19T01:54:14;95384.44;;;1.93;70.30
33151;BME280;19508;42.578;23.416;2022-12-19T01:56:44;95383.13;;;1.89;69.97
33151;BME280;19508;42.578;23.416;2022-12-19T01:59:15;95384.09;;;1.80;70.76
33151;BME280;19508;42.578;23.416;2022-12-19T02:01:45;95389.53;;;1.79;70.83
33151;BME280;19508;42.578;23.416;2022-12-19T02:04:11;95381.25;;;1.74;70.65
33151;BME280;19508;42.578;23.416;2022-12-19T02:06:38;95385.63;;;1.99;69.92
33151;BME280;19508;42.578;23.416;2022-12-19T02:09:04;95373.03;;;2.17;69.36
33151;BME280;19508;42.578;23.416;2022-12-19T02:11:33;95371.31;;;1.84;70.50
33151;BME280;19508;42.578;23.416;2022-12-19T02:13:58;95373.78;;;1.85;70.34
33151;BME280;19508;42.578;23.416;2022-12-19T02:21:57;95394.41;;;1.91;71.18
33151;BME280;19508;42.578;23.416;2022-12-19T02:24:49;95380.66;;;2.12;69.95
33151;BME280;19508;42.578;23.416;2022-12-19T02:27:56;95380.16;;;2.17;69.97
33151;BME280;19508;42.578;23.416;2022-12-19T02:33:23;95382.13;;;1.90;70.51
33151;BME280;19508;42.578;23.416;2022-12-19T02:35:58;95386.38;;;1.75;70.80
33151;BME280;19508;42.578;23.416;2022-12-19T02:41:51;95387.72;;;1.79;71.05
33151;BME280;19508;42.578;23.416;2022-12-19T02:44:24;95390.38;;;1.79;71.28
33151;BME280;19508;42.578;23.416;2022-12-19T02:46:51;95402.63;;;1.64;71.76
33151;BME280;19508;42.578;23.416;2022-12-19T02:49:17;95391.84;;;1.74;72.08
33151;BME280;19508;42.578;23.416;2022-12-19T02:51:43;95390.75;;;1.92;71.14
33151;BME280;19508;42.578;23.416;2022-12-19T02:54:08;95381.44;;;1.96;70.67
33151;BME280;19508;42.578;23.416;2022-12-19T03:02:39;95404.09;;;2.25;70.38
33151;BME280;19508;42.578;23.416;2022-12-19T03:07:48;95383.47;;;2.11;70.21
33151;BME280;19508;42.578;23.416;2022-12-19T03:12:59;95386.22;;;1.77;71.15
33151;BME280;19508;42.578;23.416;2022-12-19T03:15:26;95385.88;;;1.72;71.82
33151;BME280;19508;42.578;23.416;2022-12-19T03:17:58;95358.53;;;1.95;70.68
33151;BME280;19508;42.578;23.416;2022-12-19T03:20:34;95373.19;;;2.08;70.75
33151;BME280;19508;42.578;23.416;2022-12-19T03:23:04;95368.97;;;1.81;71.20
33151;BME280;19508;42.578;23.416;2022-12-19T03:25:30;95368.44;;;1.77;71.36
33151;BME280;19508;42.578;23.416;2022-12-19T03:28:00;95369.84;;;1.89;71.16
33151;BME280;19508;42.578;23.416;2022-12-19T03:30:28;95374.50;;;2.12;70.13
33151;BME280;19508;42.578;23.416;2022-12-19T03:32:55;95382.50;;;2.20;69.72
33151;BME280;19508;42.578;23.416;2022-12-19T03:35:27;95380.84;;;2.19;70.07
33151;BME280;19508;42.578;23.416;2022-12-19T03:37:59;95387.72;;;1.87;71.31
33151;BME280;19508;42.578;23.416;2022-12-19T03:40:27;95379.94;;;1.86;71.05
33151;BME280;19508;42.578;23.416;2022-12-19T03:42:59;95380.94;;;1.93;69.87
33151;BME280;19508;42.578;23.416;2022-12-19T03:45:54;95400.09;;;2.21;68.98
33151;BME280;19508;42.578;23.416;2022-12-19T03:48:29;95389.78;;;2.02;68.90
33151;BME280;19508;42.578;23.416;2022-12-19T03:51:21;95395.13;;;2.26;68.74
33151;BME280;19508;42.578;23.416;2022-12-19T03:54:01;95393.47;;;2.25;68.25
33151;BME280;19508;42.578;23.416;2022-12-19T03:59:35;95390.47;;;2.28;68.29
33151;BME280;19508;42.578;23.416;2022-12-19T04:02:04;95396.00;;;1.76;70.69
33151;BME280;19508;42.578;23.416;2022-12-19T04:04:30;95394.72;;;1.80;70.98
33151;BME280;19508;42.578;23.416;2022-12-19T04:07:00;95412.00;;;1.92;70.57
33151;BME280;19508;42.578;23.416;2022-12-19T04:09:25;95406.34;;;1.95;70.13
33151;BME280;19508;42.578;23.416;2022-12-19T04:11:56;95406.00;;;1.82;69.90
33151;BME280;19508;42.578;23.416;2022-12-19T04:14:32;95415.78;;;1.82;70.13
33151;BME280;19508;42.578;23.416;2022-12-19T04:19:37;95427.22;;;1.74;70.70
33151;BME280;19508;42.578;23.416;2022-12-19T04:22:11;95425.31;;;2.01;69.71
33151;BME280;19508;42.578;23.416;2022-12-19T04:24:39;95434.25;;;1.91;69.91
33151;BME280;19508;42.578;23.416;2022-12-19T04:27:07;95429.28;;;1.88;69.96
33151;BME280;19508;42.578;23.416;2022-12-19T04:29:35;95435.09;;;2.00;70.01
33151;BME280;19508;42.578;23.416;2022-12-19T04:32:04;95445.72;;;1.58;71.18
33151;BME280;19508;42.578;23.416;2022-12-19T04:34:30;95442.81;;;1.77;70.91
33151;BME280;19508;42.578;23.416;2022-12-19T04:36:55;95443.69;;;1.86;70.16
33151;BME280;19508;42.578;23.416;2022-12-19T04:39:21;95440.59;;;1.98;69.87
33151;BME280;19508;42.578;23.416;2022-12-19T04:41:46;95432.16;;;1.69;70.54
33151;BME280;19508;42.578;23.416;2022-12-19T04:44:12;95424.88;;;1.79;70.12
33151;BME280;19508;42.578;23.416;2022-12-19T04:46:37;95428.09;;;1.91;70.16
33151;BME280;19508;42.578;23.416;2022-12-19T04:49:02;95437.94;;;1.98;69.74
33151;BME280;19508;42.578;23.416;2022-12-19T04:51:28;95436.88;;;1.83;70.15
33151;BME280;19508;42.578;23.416;2022-12-19T04:53:53;95429.06;;;1.82;70.16
33151;BME280;19508;42.578;23.416;2022-12-19T04:56:19;95433.25;;;1.92;69.67
33151;BME280;19508;42.578;23.416;2022-12-19T04:58:44;95441.34;;;1.83;70.08
33151;BME280;19508;42.578;23.416;2022-12-19T05:01:09;95440.00;;;1.45;71.17
33151;BME280;19508;42.578;23.416;2022-12-19T05:03:38;95432.22;;;1.17;72.81
33151;BME280;19508;42.578;23.416;2022-12-19T05:06:09;95457.22;;;1.32;72.55
33151;BME280;19508;42.578;23.416;2022-12-19T05:08:35;95459.22;;;1.64;71.76
33151;BME280;19508;42.578;23.416;2022-12-19T05:11:02;95457.63;;;1.46;72.49
33151;BME280;19508;42.578;23.416;2022-12-19T05:13:28;95453.03;;;1.56;72.04
33151;BME280;19508;42.578;23.416;2022-12-19T05:16:05;95453.69;;;1.24;73.23
33151;BME280;19508;42.578;23.416;2022-12-19T05:18:31;95459.66;;;1.60;72.00
33151;BME280;19508;42.578;23.416;2022-12-19T05:20:57;95452.81;;;1.49;71.78
33151;BME280;19508;42.578;23.416;2022-12-19T05:23:23;95453.88;;;1.30;72.72
33151;BME280;19508;42.578;23.416;2022-12-19T05:25:49;95451.22;;;1.30;73.18
33151;BME280;19508;42.578;23.416;2022-12-19T05:28:15;95457.59;;;1.37;72.82
33151;BME280;19508;42.578;23.416;2022-12-19T05:30:41;95461.56;;;1.41;72.93
33151;BME280;19508;42.578;23.416;2022-12-19T05:33:06;95456.16;;;1.51;71.81
33151;BME280;19508;42.578;23.416;2022-12-19T05:35:33;95461.28;;;1.53;72.20
33151;BME280;19508;42.578;23.416;2022-12-19T05:38:01;95454.03;;;1.55;71.69
33151;BME280;19508;42.578;23.416;2022-12-19T05:40:27;95466.03;;;1.67;72.12
33151;BME280;19508;42.578;23.416;2022-12-19T05:42:52;95464.03;;;1.69;71.89
33151;BME280;19508;42.578;23.416;2022-12-19T05:45:18;95466.03;;;1.67;71.85
33151;BME280;19508;42.578;23.416;2022-12-19T05:47:46;95450.41;;;1.64;71.71
33151;BME280;19508;42.578;23.416;2022-12-19T05:50:13;95462.28;;;1.52;72.18
33151;BME280;19508;42.578;23.416;2022-12-19T05:52:38;95457.34;;;1.57;72.05
33151;BME280;19508;42.578;23.416;2022-12-19T05:55:05;95455.72;;;1.64;71.96
33151;BME280;19508;42.578;23.416;2022-12-19T05:57:31;95456.16;;;1.51;72.42
33151;BME280;19508;42.578;23.416;2022-12-19T05:59:57;95469.59;;;1.50;73.04
33151;BME280;19508;42.578;23.416;2022-12-19T06:02:22;95467.34;;;1.63;73.10
33151;BME280;19508;42.578;23.416;2022-12-19T06:04:48;95464.72;;;1.79;71.94
33151;BME280;19508;42.578;23.416;2022-12-19T06:07:13;95465.59;;;1.88;71.49
33151;BME280;19508;42.578;23.416;2022-12-19T06:09:39;95463.50;;;2.00;71.16
33151;BME280;19508;42.578;23.416;2022-12-19T06:12:04;95466.47;;;1.96;71.54
33151;BME280;19508;42.578;23.416;2022-12-19T06:14:30;95467.81;;;2.01;70.94
33151;BME280;19508;42.578;23.416;2022-12-19T06:16:55;95469.88;;;2.15;70.59
33151;BME280;19508;42.578;23.416;2022-12-19T06:19:21;95471.19;;;2.19;70.58
33151;BME280;19508;42.578;23.416;2022-12-19T06:21:46;95477.47;;;2.10;70.75
33151;BME280;19508;42.578;23.416;2022-12-19T06:24:11;95479.47;;;2.08;69.85
33151;BME280;19508;42.578;23.416;2022-12-19T06:26:37;95487.31;;;2.17;69.83
33151;BME280;19508;42.578;23.416;2022-12-19T06:29:02;95482.50;;;2.29;69.42
33151;BME280;19508;42.578;23.416;2022-12-19T06:31:28;95481.88;;;2.35;69.56
33151;BME280;19508;42.578;23.416;2022-12-19T06:33:54;95491.69;;;2.35;69.08
33151;BME280;19508;42.578;23.416;2022-12-19T06:36:25;95486.38;;;2.35;69.12
33151;BME280;19508;42.578;23.416;2022-12-19T06:38:51;95484.16;;;2.22;69.50
33151;BME280;19508;42.578;23.416;2022-12-19T06:41:18;95487.22;;;2.51;68.51
33151;BME280;19508;42.578;23.416;2022-12-19T06:44:05;95493.19;;;2.45;68.02
33151;BME280;19508;42.578;23.416;2022-12-19T06:46:31;95494.41;;;2.59;67.96
33151;BME280;19508;42.578;23.416;2022-12-19T06:48:56;95496.41;;;2.57;67.83
33151;BME280;19508;42.578;23.416;2022-12-19T06:51:22;95501.50;;;2.42;67.78
33151;BME280;19508;42.578;23.416;2022-12-19T06:53:47;95497.66;;;2.37;67.97
33151;BME280;19508;42.578;23.416;2022-12-19T06:56:14;95500.47;;;2.35;68.39
33151;BME280;19508;42.578;23.416;2022-12-19T06:58:40;95511.00;;;2.53;68.38
33151;BME280;19508;42.578;23.416;2022-12-19T07:01:06;95511.03;;;2.69;67.66
33151;BME280;19508;42.578;23.416;2022-12-19T07:03:38;95513.50;;;2.54;68.38
33151;BME280;19508;42.578;23.416;2022-12-19T07:06:05;95502.69;;;2.56;68.52
33151;BME280;19508;42.578;23.416;2022-12-19T07:08:31;95519.66;;;2.71;68.97
33151;BME280;19508;42.578;23.416;2022-12-19T07:10:57;95525.34;;;2.76;67.66
33151;BME280;19508;42.578;23.416;2022-12-19T07:13:23;95517.69;;;2.81;67.56
33151;BME280;19508;42.578;23.416;2022-12-19T07:15:50;95522.88;;;2.83;67.90
33151;BME280;19508;42.578;23.416;2022-12-19T07:18:16;95523.72;;;2.92;67.47
33151;BME280;19508;42.578;23.416;2022-12-19T07:20:42;95528.03;;;3.01;67.17
33151;BME280;19508;42.578;23.416;2022-12-19T07:23:11;95529.13;;;2.58;68.81
33151;BME280;19508;42.578;23.416;2022-12-19T07:25:38;95530.50;;;2.86;67.88
33151;BME280;19508;42.578;23.416;2022-12-19T07:28:05;95532.53;;;3.08;66.49
33151;BME280;19508;42.578;23.416;2022-12-19T07:30:31;95519.22;;;2.92;66.43
33151;BME280;19508;42.578;23.416;2022-12-19T07:32:57;95532.53;;;3.08;67.43
33151;BME280;19508;42.578;23.416;2022-12-19T07:35:22;95532.31;;;2.77;67.73
33151;BME280;19508;42.578;23.416;2022-12-19T07:37:49;95529.84;;;2.84;67.35
33151;BME280;19508;42.578;23.416;2022-12-19T07:40:15;95534.84;;;2.87;67.76
33151;BME280;19508;42.578;23.416;2022-12-19T07:42:40;95538.16;;;2.89;67.69
33151;BME280;19508;42.578;23.416;2022-12-19T07:45:06;95532.19;;;2.95;68.05
33151;BME280;19508;42.578;23.416;2022-12-19T07:47:32;95549.81;;;3.13;67.15
33151;BME280;19508;42.578;23.416;2022-12-19T07:49:57;95539.19;;;3.29;66.91
33151;BME280;19508;42.578;23.416;2022-12-19T07:52:23;95550.66;;;3.29;66.76
33151;BME280;19508;42.578;23.416;2022-12-19T07:54:48;95553.16;;;3.31;66.48
33151;BME280;19508;42.578;23.416;2022-12-19T07:57:14;95558.81;;;3.44;66.18
33151;BME280;19508;42.578;23.416;2022-12-19T07:59:39;95563.47;;;3.50;66.10
33151;BME280;19508;42.578;23.416;2022-12-19T08:02:05;95562.47;;;3.59;65.75
33151;BME280;19508;42.578;23.416;2022-12-19T08:04:30;95580.44;;;3.41;66.36
33151;BME280;19508;42.578;23.416;2022-12-19T08:06:56;95573.44;;;3.73;66.00
33151;BME280;19508;42.578;23.416;2022-12-19T08:09:21;95582.09;;;3.75;65.32
33151;BME280;19508;42.578;23.416;2022-12-19T08:11:47;95576.94;;;3.32;66.43
33151;BME280;19508;42.578;23.416;2022-12-19T08:14:13;95577.63;;;3.34;66.73
33151;BME280;19508;42.578;23.416;2022-12-19T08:16:38;95566.16;;;3.42;66.23
33151;BME280;19508;42.578;23.416;2022-12-19T08:19:04;95568.13;;;3.56;66.51
33151;BME280;19508;42.578;23.416;2022-12-19T08:21:29;95585.75;;;3.74;66.66
33151;BME280;19508;42.578;23.416;2022-12-19T08:23:55;95586.41;;;3.84;66.44
33151;BME280;19508;42.578;23.416;2022-12-19T08:26:21;95578.59;;;3.58;67.63
33151;BME280;19508;42.578;23.416;2022-12-19T08:28:54;95591.09;;;3.17;70.14
33151;BME280;19508;42.578;23.416;2022-12-19T08:31:21;95595.78;;;3.47;68.53
33151;BME280;19508;42.578;23.416;2022-12-19T08:33:54;95593.78;;;3.25;69.96
33151;BME280;19508;42.578;23.416;2022-12-19T08:36:21;95596.09;;;3.36;69.94
33151;BME280;19508;42.578;23.416;2022-12-19T08:38:47;95598.78;;;3.52;70.15
33151;BME280;19508;42.578;23.416;2022-12-19T08:41:14;95595.91;;;3.05;72.22
33151;BME280;19508;42.578;23.416;2022-12-19T08:43:40;95593.44;;;3.20;72.37
33151;BME280;19508;42.578;23.416;2022-12-19T08:46:06;95595.59;;;3.49;71.41
33151;BME280;19508;42.578;23.416;2022-12-19T08:48:32;95584.78;;;3.50;71.33
33151;BME280;19508;42.578;23.416;2022-12-19T08:51:00;95591.63;;;3.61;71.05
33151;BME280;19508;42.578;23.416;2022-12-19T08:53:28;95587.28;;;3.68;70.58
33151;BME280;19508;42.578;23.416;2022-12-19T08:55:58;95577.09;;;3.72;71.40
33151;BME280;19508;42.578;23.416;2022-12-19T08:58:25;95578.25;;;3.85;71.04
33151;BME280;19508;42.578;23.416;2022-12-19T09:00:50;95568.94;;;3.73;71.30
33151;BME280;19508;42.578;23.416;2022-12-19T09:03:20;95570.13;;;3.54;71.53
33151;BME280;19508;42.578;23.416;2022-12-19T09:05:56;95566.94;;;3.75;71.16
33151;BME280;19508;42.578;23.416;2022-12-19T09:08:22;95573.94;;;3.76;70.83
33151;BME280;19508;42.578;23.416;2022-12-19T09:10:48;95565.16;;;3.59;71.76
33151;BME280;19508;42.578;23.416;2022-12-19T09:13:14;95561.66;;;3.51;71.99
33151;BME280;19508;42.578;23.416;2022-12-19T09:15:39;95560.47;;;3.78;70.71
33151;BME280;19508;42.578;23.416;2022-12-19T09:18:05;95560.47;;;3.53;72.25
33151;BME280;19508;42.578;23.416;2022-12-19T09:20:31;95565.47;;;3.48;72.41
33151;BME280;19508;42.578;23.416;2022-12-19T09:22:56;95556.81;;;3.46;72.92
33151;BME280;19508;42.578;23.416;2022-12-19T09:25:21;95558.31;;;3.57;72.82
33151;BME280;19508;42.578;23.416;2022-12-19T09:27:47;95553.31;;;3.70;72.36
33151;BME280;19508;42.578;23.416;2022-12-19T09:30:13;95552.13;;;3.56;72.91
33151;BME280;19508;42.578;23.416;2022-12-19T09:32:38;95533.19;;;3.59;73.25
33151;BME280;19508;42.578;23.416;2022-12-19T09:35:04;95534.47;;;3.72;72.54
33151;BME280;19508;42.578;23.416;2022-12-19T09:37:30;95532.28;;;3.75;73.81
33151;BME280;19508;42.578;23.416;2022-12-19T09:39:55;95524.31;;;3.75;74.24
33151;BME280;19508;42.578;23.416;2022-12-19T09:42:39;95528.16;;;3.64;74.16
33151;BME280;19508;42.578;23.416;2022-12-19T09:47:43;95513.50;;;3.68;74.17
33151;BME280;19508;42.578;23.416;2022-12-19T09:52:56;95509.19;;;3.67;73.77
33151;BME280;19508;42.578;23.416;2022-12-19T09:55:32;95505.19;;;3.63;74.04
33151;BME280;19508;42.578;23.416;2022-12-19T09:58:13;95501.97;;;3.84;73.78
33151;BME280;19508;42.578;23.416;2022-12-19T10:00:48;95507.16;;;3.78;73.20
33151;BME280;19508;42.578;23.416;2022-12-19T10:06:23;95490.56;;;4.07;71.84
33151;BME280;19508;42.578;23.416;2022-12-19T10:08:51;95489.91;;;4.36;70.59
33151;BME280;19508;42.578;23.416;2022-12-19T10:19:41;95482.13;;;4.88;69.56
33151;BME280;19508;42.578;23.416;2022-12-19T10:22:32;95483.22;;;4.94;68.11
33151;BME280;19508;42.578;23.416;2022-12-19T10:25:35;95473.81;;;5.06;66.79
33151;BME280;19508;42.578;23.416;2022-12-19T10:30:41;95468.78;;;4.88;67.32
33151;BME280;19508;42.578;23.416;2022-12-19T10:35:40;95455.81;;;5.00;66.10
33151;BME280;19508;42.578;23.416;2022-12-19T10:49:22;95436.47;;;5.35;64.37
33151;BME280;19508;42.578;23.416;2022-12-19T11:00:15;95438.53;;;5.48;62.47
33151;BME280;19508;42.578;23.416;2022-12-19T11:02:43;95432.97;;;5.35;62.76
33151;BME280;19508;42.578;23.416;2022-12-19T11:05:38;95435.63;;;5.20;63.20
33151;BME280;19508;42.578;23.416;2022-12-19T11:13:22;95430.38;;;5.27;62.76
33151;BME280;19508;42.578;23.416;2022-12-19T11:15:52;95433.94;;;5.04;62.84
33151;BME280;19508;42.578;23.416;2022-12-19T11:18:18;95425.75;;;4.83;63.37
33151;BME280;19508;42.578;23.416;2022-12-19T11:20:56;95430.13;;;5.22;63.21
33151;BME280;19508;42.578;23.416;2022-12-19T11:23:22;95427.75;;;5.04;61.69
33151;BME280;19508;42.578;23.416;2022-12-19T11:26:04;95423.78;;;5.00;61.66
33151;BME280;19508;42.578;23.416;2022-12-19T11:28:37;95425.50;;;4.70;61.60
33151;BME280;19508;42.578;23.416;2022-12-19T11:31:09;95426.63;;;4.52;62.63
33151;BME280;19508;42.578;23.416;2022-12-19T11:33:36;95423.09;;;4.60;61.43
33151;BME280;19508;42.578;23.416;2022-12-19T11:36:04;95427.69;;;4.43;61.88
33151;BME280;19508;42.578;23.416;2022-12-19T11:38:47;95421.78;;;4.33;62.87
33151;BME280;19508;42.578;23.416;2022-12-19T11:41:34;95422.69;;;4.17;62.75
33151;BME280;19508;42.578;23.416;2022-12-19T11:44:22;95426.88;;;4.20;62.55
33151;BME280;19508;42.578;23.416;2022-12-19T11:49:40;95429.59;;;4.35;62.60
33151;BME280;19508;42.578;23.416;2022-12-19T11:52:33;95430.22;;;4.45;62.12
33151;BME280;19508;42.578;23.416;2022-12-19T11:55:08;95427.25;;;4.40;61.18
33151;BME280;19508;42.578;23.416;2022-12-19T11:57:40;95420.66;;;4.28;61.72
33151;BME280;19508;42.578;23.416;2022-12-19T12:00:17;95419.78;;;4.58;61.03
33151;BME280;19508;42.578;23.416;2022-12-19T12:13:33;95433.22;;;4.42;61.00
33151;BME280;19508;42.578;23.416;2022-12-19T12:27:01;95432.81;;;4.76;58.33
33151;BME280;19508;42.578;23.416;2022-12-19T12:30:03;95432.94;;;4.60;59.04
33151;BME280;19508;42.578;23.416;2022-12-19T12:45:35;95455.00;;;4.53;61.13
33151;BME280;19508;42.578;23.416;2022-12-19T12:48:29;95451.56;;;4.45;60.71
33151;BME280;19508;42.578;23.416;2022-12-19T12:50:53;95450.53;;;4.15;61.52
33151;BME280;19508;42.578;23.416;2022-12-19T12:53:22;95437.03;;;4.16;61.97
33151;BME280;19508;42.578;23.416;2022-12-19T12:55:50;95443.31;;;4.23;61.65
33151;BME280;19508;42.578;23.416;2022-12-19T13:03:55;95432.31;;;3.95;62.14
33151;BME280;19508;42.578;23.416;2022-12-19T13:09:19;95434.50;;;3.84;62.69
33151;BME280;19508;42.578;23.416;2022-12-19T13:11:53;95431.88;;;3.76;63.38
33151;BME280;19508;42.578;23.416;2022-12-19T13:14:43;95449.88;;;3.74;63.77
33151;BME280;19508;42.578;23.416;2022-12-19T13:22:43;95447.72;;;3.77;63.39
33151;BME280;19508;42.578;23.416;2022-12-19T13:30:32;95453.56;;;3.64;64.29
33151;BME280;19508;42.578;23.416;2022-12-19T13:38:00;95471.38;;;3.72;64.12
33151;BME280;19508;42.578;23.416;2022-12-19T13:46:05;95475.25;;;3.53;63.82
33151;BME280;19508;42.578;23.416;2022-12-19T13:48:45;95476.56;;;3.57;63.94
33151;BME280;19508;42.578;23.416;2022-12-19T13:51:12;95479.38;;;3.64;63.47
33151;BME280;19508;42.578;23.416;2022-12-19T13:53:40;95472.75;;;3.60;63.02
33151;BME280;19508;42.578;23.416;2022-12-19T13:56:14;95480.56;;;3.61;62.04
33151;BME280;19508;42.578;23.416;2022-12-19T14:01:34;95476.84;;;3.79;62.92
33151;BME280;19508;42.578;23.416;2022-12-19T14:04:27;95480.19;;;3.73;63.02
33151;BME280;19508;42.578;23.416;2022-12-19T14:07:04;95482.88;;;3.64;63.69
33151;BME280;19508;42.578;23.416;2022-12-19T14:09:34;95477.09;;;3.45;64.58
33151;BME280;19508;42.578;23.416;2022-12-19T14:12:03;95481.72;;;3.59;64.94
33151;BME280;19508;42.578;23.416;2022-12-19T14:14:30;95468.25;;;3.52;65.27
33151;BME280;19508;42.578;23.416;2022-12-19T14:17:17;95481.06;;;3.49;65.99
33151;BME280;19508;42.578;23.416;2022-12-19T14:19:46;95489.59;;;3.36;66.81
33151;BME280;19508;42.578;23.416;2022-12-19T14:24:54;95481.59;;;3.36;66.31
33151;BME280;19508;42.578;23.416;2022-12-19T14:27:28;95477.59;;;3.24;66.66
33151;BME280;19508;42.578;23.416;2022-12-19T14:29:55;95491.25;;;3.13;66.81
33151;BME280;19508;42.578;23.416;2022-12-19T14:32:22;95501.91;;;3.13;67.00
33151;BME280;19508;42.578;23.416;2022-12-19T14:34:49;95495.59;;;3.30;65.99
33151;BME280;19508;42.578;23.416;2022-12-19T14:37:32;95488.25;;;3.24;65.53
33151;BME280;19508;42.578;23.416;2022-12-19T14:40:00;95494.94;;;3.20;65.97
33151;BME280;19508;42.578;23.416;2022-12-19T14:42:29;95487.59;;;3.14;65.66
33151;BME280;19508;42.578;23.416;2022-12-19T14:47:55;95496.25;;;3.16;65.25
33151;BME280;19508;42.578;23.416;2022-12-19T14:50:34;95493.56;;;3.32;65.17
33151;BME280;19508;42.578;23.416;2022-12-19T14:53:26;95490.91;;;3.24;64.82
33151;BME280;19508;42.578;23.416;2022-12-19T14:56:01;95486.28;;;3.09;65.45
33151;BME280;19508;42.578;23.416;2022-12-19T14:58:30;95474.97;;;2.99;65.69
33151;BME280;19508;42.578;23.416;2022-12-19T15:00:56;95476.13;;;2.89;66.85
33151;BME280;19508;42.578;23.416;2022-12-19T15:03:31;95480.31;;;2.99;66.35
33151;BME280;19508;42.578;23.416;2022-12-19T15:06:13;95474.28;;;2.89;67.20
33151;BME280;19508;42.578;23.416;2022-12-19T15:08:39;95470.44;;;3.16;66.69
33151;BME280;19508;42.578;23.416;2022-12-19T15:11:05;95466.66;;;3.19;66.42
33151;BME280;19508;42.578;23.416;2022-12-19T15:13:56;95470.31;;;3.09;66.92
33151;BME280;19508;42.578;23.416;2022-12-19T15:16:28;95467.13;;;3.14;67.34
33151;BME280;19508;42.578;23.416;2022-12-19T15:18:56;95471.97;;;2.94;66.91
33151;BME280;19508;42.578;23.416;2022-12-19T15:21:22;95469.97;;;2.88;67.07
33151;BME280;19508;42.578;23.416;2022-12-19T15:23:48;95465.66;;;2.95;67.25
33151;BME280;19508;42.578;23.416;2022-12-19T15:26:16;95469.97;;;2.96;67.01
33151;BME280;19508;42.578;23.416;2022-12-19T15:28:51;95468.16;;;2.97;66.66
33151;BME280;19508;42.578;23.416;2022-12-19T15:31:30;95470.63;;;2.90;66.64
33151;BME280;19508;42.578;23.416;2022-12-19T15:33:57;95472.63;;;2.96;66.48
33151;BME280;19508;42.578;23.416;2022-12-19T15:36:23;95472.16;;;3.01;65.70
33151;BME280;19508;42.578;23.416;2022-12-19T15:38:48;95480.63;;;2.96;66.04
33151;BME280;19508;42.578;23.416;2022-12-19T15:41:16;95478.97;;;2.95;66.07
33151;BME280;19508;42.578;23.416;2022-12-19T15:43:44;95487.13;;;3.02;66.08
33151;BME280;19508;42.578;23.416;2022-12-19T15:46:11;95492.28;;;3.03;65.61